Milton, Kentucky
Current Conditions -  °F | °C
As of 8:53 AM on Thursday 27 Nov 2014 (Local Time) from KLOU Reporting Station
Overcast Overcast  
Wind Chill: 22°   Ceiling: 2000
Heat Index: 31°   Visibility: 7mi
Dew Point: 24°   Wind: 10mph
Humidity: 76%   Direction: 330°NNW
Pressure: 30.3"   Gusts: 18mph
Location:  38.72°N, 85.37°W
Report Text: KLOU 271353Z 33009G16KT 7SM OVC020 M01/M04 A3030 RMK AO2 SLP264 T10061044
Loading
Personal Weather Stations






























Interactive Weather Map New forecast layout! Learn more

10-Day Weather Forecast

Advertisements
Track Severe Weather on mobile